sensor_id;sensor_type;location;lat;lon;timestamp;temperature;humidity
8109;DHT22;4097;47.812;12.374;2022-10-31T00:01:58;12.20;99.90
8109;DHT22;4097;47.812;12.374;2022-10-31T00:04:25;12.10;99.90
8109;DHT22;4097;47.812;12.374;2022-10-31T00:06:58;12.20;99.90
8109;DHT22;4097;47.812;12.374;2022-10-31T00:09:25;12.20;99.90
8109;DHT22;4097;47.812;12.374;2022-10-31T00:11:51;12.20;99.90
8109;DHT22;4097;47.812;12.374;2022-10-31T00:14:20;12.10;99.90
8109;DHT22;4097;47.812;12.374;2022-10-31T00:16:53;12.10;99.90
8109;DHT22;4097;47.812;12.374;2022-10-31T00:19:19;12.10;99.90
8109;DHT22;4097;47.812;12.374;2022-10-31T00:21:46;12.10;99.90
8109;DHT22;4097;47.812;12.374;2022-10-31T00:24:13;12.10;99.90
8109;DHT22;4097;47.812;12.374;2022-10-31T00:26:40;12.10;99.90
8109;DHT22;4097;47.812;12.374;2022-10-31T00:29:13;12.00;99.90
8109;DHT22;4097;47.812;12.374;2022-10-31T00:31:41;12.00;99.90
8109;DHT22;4097;47.812;12.374;2022-10-31T00:34:08;12.00;99.90
8109;DHT22;4097;47.812;12.374;2022-10-31T00:36:55;11.80;99.90
8109;DHT22;4097;47.812;12.374;2022-10-31T00:39:22;11.80;99.90
8109;DHT22;4097;47.812;12.374;2022-10-31T00:41:49;11.70;99.90
8109;DHT22;4097;47.812;12.374;2022-10-31T00:44:16;11.70;99.90
8109;DHT22;4097;47.812;12.374;2022-10-31T00:46:54;11.60;99.90
8109;DHT22;4097;47.812;12.374;2022-10-31T00:49:21;11.50;99.90
8109;DHT22;4097;47.812;12.374;2022-10-31T00:51:48;11.50;99.90
8109;DHT22;4097;47.812;12.374;2022-10-31T00:54:15;11.50;99.90
8109;DHT22;4097;47.812;12.374;2022-10-31T00:56:42;11.50;99.90
8109;DHT22;4097;47.812;12.374;2022-10-31T00:59:11;11.50;99.90
8109;DHT22;4097;47.812;12.374;2022-10-31T01:01:38;11.50;99.90
8109;DHT22;4097;47.812;12.374;2022-10-31T01:04:07;11.50;99.90
8109;DHT22;4097;47.812;12.374;2022-10-31T01:06:33;11.60;99.90
8109;DHT22;4097;47.812;12.374;2022-10-31T01:09:05;11.50;99.90
8109;DHT22;4097;47.812;12.374;2022-10-31T01:11:32;11.50;99.90
8109;DHT22;4097;47.812;12.374;2022-10-31T01:13:59;11.50;99.90
8109;DHT22;4097;47.812;12.374;2022-10-31T01:16:27;11.50;99.90
8109;DHT22;4097;47.812;12.374;2022-10-31T01:19:00;11.50;99.90
8109;DHT22;4097;47.812;12.374;2022-10-31T01:21:29;11.50;99.90
8109;DHT22;4097;47.812;12.374;2022-10-31T01:23:56;11.50;99.90
8109;DHT22;4097;47.812;12.374;2022-10-31T01:26:25;11.50;99.90
8109;DHT22;4097;47.812;12.374;2022-10-31T01:28:57;11.50;99.90
8109;DHT22;4097;47.812;12.374;2022-10-31T01:31:26;11.50;99.90
8109;DHT22;4097;47.812;12.374;2022-10-31T01:33:54;11.50;99.90
8109;DHT22;4097;47.812;12.374;2022-10-31T01:36:22;11.50;99.90
8109;DHT22;4097;47.812;12.374;2022-10-31T01:39:07;11.40;99.90
8109;DHT22;4097;47.812;12.374;2022-10-31T01:41:38;11.40;99.90
8109;DHT22;4097;47.812;12.374;2022-10-31T01:47:16;11.40;99.90
8109;DHT22;4097;47.812;12.374;2022-10-31T01:49:47;11.30;99.90
8109;DHT22;4097;47.812;12.374;2022-10-31T01:52:20;11.30;99.90
8109;DHT22;4097;47.812;12.374;2022-10-31T01:54:52;11.30;99.90
8109;DHT22;4097;47.812;12.374;2022-10-31T01:57:24;11.40;99.90
8109;DHT22;4097;47.812;12.374;2022-10-31T01:59:54;11.40;99.90
8109;DHT22;4097;47.812;12.374;2022-10-31T02:02:22;11.30;99.90
8109;DHT22;4097;47.812;12.374;2022-10-31T02:04:49;11.30;99.90
8109;DHT22;4097;47.812;12.374;2022-10-31T02:07:29;11.20;99.90
8109;DHT22;4097;47.812;12.374;2022-10-31T02:10:02;11.20;99.90
8109;DHT22;4097;47.812;12.374;2022-10-31T02:12:30;11.10;99.90
8109;DHT22;4097;47.812;12.374;2022-10-31T02:14:58;11.10;99.90
8109;DHT22;4097;47.812;12.374;2022-10-31T02:17:33;11.10;99.90
8109;DHT22;4097;47.812;12.374;2022-10-31T02:20:08;11.00;99.90
8109;DHT22;4097;47.812;12.374;2022-10-31T02:22:43;11.10;99.90
8109;DHT22;4097;47.812;12.374;2022-10-31T02:25:37;11.10;99.90
8109;DHT22;4097;47.812;12.374;2022-10-31T02:28:24;11.10;99.90
8109;DHT22;4097;47.812;12.374;2022-10-31T02:31:03;11.10;99.90
8109;DHT22;4097;47.812;12.374;2022-10-31T02:33:36;11.10;99.90
8109;DHT22;4097;47.812;12.374;2022-10-31T02:36:11;11.10;99.90
8109;DHT22;4097;47.812;12.374;2022-10-31T02:38:52;11.10;99.90
8109;DHT22;4097;47.812;12.374;2022-10-31T02:41:29;11.00;99.90
8109;DHT22;4097;47.812;12.374;2022-10-31T02:44:05;11.00;99.90
8109;DHT22;4097;47.812;12.374;2022-10-31T02:46:39;10.90;99.90
8109;DHT22;4097;47.812;12.374;2022-10-31T02:49:14;10.90;99.90
8109;DHT22;4097;47.812;12.374;2022-10-31T02:51:43;10.80;99.90
8109;DHT22;4097;47.812;12.374;2022-10-31T02:54:22;10.80;99.90
8109;DHT22;4097;47.812;12.374;2022-10-31T02:57:00;10.80;99.90
8109;DHT22;4097;47.812;12.374;2022-10-31T02:59:29;10.80;99.90
8109;DHT22;4097;47.812;12.374;2022-10-31T03:02:14;10.70;99.90
8109;DHT22;4097;47.812;12.374;2022-10-31T03:07:59;10.70;99.90
8109;DHT22;4097;47.812;12.374;2022-10-31T03:10:35;10.50;99.90
8109;DHT22;4097;47.812;12.374;2022-10-31T03:13:10;10.60;99.90
8109;DHT22;4097;47.812;12.374;2022-10-31T03:15:43;10.60;99.90
8109;DHT22;4097;47.812;12.374;2022-10-31T03:18:20;10.60;99.90
8109;DHT22;4097;47.812;12.374;2022-10-31T03:20:54;10.60;99.90
8109;DHT22;4097;47.812;12.374;2022-10-31T03:23:24;10.70;99.90
8109;DHT22;4097;47.812;12.374;2022-10-31T03:25:53;10.70;99.90
8109;DHT22;4097;47.812;12.374;2022-10-31T03:28:29;10.70;99.90
8109;DHT22;4097;47.812;12.374;2022-10-31T03:30:57;10.60;99.90
8109;DHT22;4097;47.812;12.374;2022-10-31T03:33:28;10.60;99.90
8109;DHT22;4097;47.812;12.374;2022-10-31T03:35:59;10.50;99.90
8109;DHT22;4097;47.812;12.374;2022-10-31T03:38:32;10.50;99.90
8109;DHT22;4097;47.812;12.374;2022-10-31T03:41:04;10.40;99.90
8109;DHT22;4097;47.812;12.374;2022-10-31T03:43:35;10.40;99.90
8109;DHT22;4097;47.812;12.374;2022-10-31T03:46:04;10.50;99.90
8109;DHT22;4097;47.812;12.374;2022-10-31T03:48:36;10.40;99.90
8109;DHT22;4097;47.812;12.374;2022-10-31T03:51:07;10.40;99.90
8109;DHT22;4097;47.812;12.374;2022-10-31T03:53:43;10.40;99.90
8109;DHT22;4097;47.812;12.374;2022-10-31T03:56:17;10.40;99.90
8109;DHT22;4097;47.812;12.374;2022-10-31T03:58:54;10.40;99.90
8109;DHT22;4097;47.812;12.374;2022-10-31T04:01:24;10.50;99.90
8109;DHT22;4097;47.812;12.374;2022-10-31T04:03:55;10.50;99.90
8109;DHT22;4097;47.812;12.374;2022-10-31T04:06:24;10.50;99.90
8109;DHT22;4097;47.812;12.374;2022-10-31T04:08:58;10.40;99.90
8109;DHT22;4097;47.812;12.374;2022-10-31T04:11:29;10.40;99.90
8109;DHT22;4097;47.812;12.374;2022-10-31T04:13:58;10.40;99.90
8109;DHT22;4097;47.812;12.374;2022-10-31T04:16:27;10.40;99.90
8109;DHT22;4097;47.812;12.374;2022-10-31T04:18:58;10.40;99.90
8109;DHT22;4097;47.812;12.374;2022-10-31T04:21:28;10.40;99.90
8109;DHT22;4097;47.812;12.374;2022-10-31T04:23:56;10.40;99.90
8109;DHT22;4097;47.812;12.374;2022-10-31T04:26:23;10.40;99.90
8109;DHT22;4097;47.812;12.374;2022-10-31T04:28:53;10.40;99.90
8109;DHT22;4097;47.812;12.374;2022-10-31T04:31:20;10.40;99.90
8109;DHT22;4097;47.812;12.374;2022-10-31T04:33:47;10.30;99.90
8109;DHT22;4097;47.812;12.374;2022-10-31T04:36:15;10.30;99.90
8109;DHT22;4097;47.812;12.374;2022-10-31T04:38:45;10.30;99.90
8109;DHT22;4097;47.812;12.374;2022-10-31T04:41:12;10.30;99.90
8109;DHT22;4097;47.812;12.374;2022-10-31T04:43:39;10.20;99.90
8109;DHT22;4097;47.812;12.374;2022-10-31T04:46:08;10.20;99.90
8109;DHT22;4097;47.812;12.374;2022-10-31T04:48:38;10.20;99.90
8109;DHT22;4097;47.812;12.374;2022-10-31T04:51:05;10.20;99.90
8109;DHT22;4097;47.812;12.374;2022-10-31T04:53:34;10.20;99.90
8109;DHT22;4097;47.812;12.374;2022-10-31T04:56:01;10.20;99.90
8109;DHT22;4097;47.812;12.374;2022-10-31T04:58:31;10.20;99.90
8109;DHT22;4097;47.812;12.374;2022-10-31T05:00:57;10.20;99.90
8109;DHT22;4097;47.812;12.374;2022-10-31T05:03:25;10.20;99.90
8109;DHT22;4097;47.812;12.374;2022-10-31T05:05:52;10.10;99.90
8109;DHT22;4097;47.812;12.374;2022-10-31T05:08:25;10.10;99.90
8109;DHT22;4097;47.812;12.374;2022-10-31T05:10:53;10.10;99.90
8109;DHT22;4097;47.812;12.374;2022-10-31T05:13:20;10.10;99.90
8109;DHT22;4097;47.812;12.374;2022-10-31T05:15:47;10.00;99.90
8109;DHT22;4097;47.812;12.374;2022-10-31T05:18:20;10.00;99.90
8109;DHT22;4097;47.812;12.374;2022-10-31T05:20:48;9.90;99.90
8109;DHT22;4097;47.812;12.374;2022-10-31T05:23:15;9.90;99.90
8109;DHT22;4097;47.812;12.374;2022-10-31T05:25:42;9.80;99.90
8109;DHT22;4097;47.812;12.374;2022-10-31T05:28:13;9.90;99.90
8109;DHT22;4097;47.812;12.374;2022-10-31T05:30:40;9.90;99.90
8109;DHT22;4097;47.812;12.374;2022-10-31T05:33:07;9.80;99.90
8109;DHT22;4097;47.812;12.374;2022-10-31T05:35:34;9.80;99.90
8109;DHT22;4097;47.812;12.374;2022-10-31T05:38:07;9.80;99.90
8109;DHT22;4097;47.812;12.374;2022-10-31T05:40:35;9.80;99.90
8109;DHT22;4097;47.812;12.374;2022-10-31T05:43:02;9.80;99.90
8109;DHT22;4097;47.812;12.374;2022-10-31T05:45:32;9.80;99.90
8109;DHT22;4097;47.812;12.374;2022-10-31T05:48:03;9.80;99.90
8109;DHT22;4097;47.812;12.374;2022-10-31T05:50:31;9.80;99.90
8109;DHT22;4097;47.812;12.374;2022-10-31T05:52:59;9.90;99.90
8109;DHT22;4097;47.812;12.374;2022-10-31T05:55:27;9.90;99.90
8109;DHT22;4097;47.812;12.374;2022-10-31T05:58:00;9.90;99.90
8109;DHT22;4097;47.812;12.374;2022-10-31T06:00:27;9.90;99.90
8109;DHT22;4097;47.812;12.374;2022-10-31T06:03:00;9.90;99.90
8109;DHT22;4097;47.812;12.374;2022-10-31T06:05:27;9.90;99.90
8109;DHT22;4097;47.812;12.374;2022-10-31T06:08:00;9.90;99.90
8109;DHT22;4097;47.812;12.374;2022-10-31T06:10:27;10.00;99.90
8109;DHT22;4097;47.812;12.374;2022-10-31T06:12:54;10.00;99.90
8109;DHT22;4097;47.812;12.374;2022-10-31T06:15:21;10.00;99.90
8109;DHT22;4097;47.812;12.374;2022-10-31T06:17:59;10.00;99.90
8109;DHT22;4097;47.812;12.374;2022-10-31T06:20:26;10.00;99.90
8109;DHT22;4097;47.812;12.374;2022-10-31T06:22:53;10.00;99.90
8109;DHT22;4097;47.812;12.374;2022-10-31T06:25:20;10.00;99.90
8109;DHT22;4097;47.812;12.374;2022-10-31T06:27:50;10.00;99.90
8109;DHT22;4097;47.812;12.374;2022-10-31T06:30:17;10.00;99.90
8109;DHT22;4097;47.812;12.374;2022-10-31T06:32:44;10.10;99.90
8109;DHT22;4097;47.812;12.374;2022-10-31T06:35:13;10.10;99.90
8109;DHT22;4097;47.812;12.374;2022-10-31T06:37:51;10.00;99.90
8109;DHT22;4097;47.812;12.374;2022-10-31T06:40:18;10.10;99.90
8109;DHT22;4097;47.812;12.374;2022-10-31T06:42:45;10.10;99.90
8109;DHT22;4097;47.812;12.374;2022-10-31T06:45:12;10.20;99.90
8109;DHT22;4097;47.812;12.374;2022-10-31T06:47:50;10.20;99.90
8109;DHT22;4097;47.812;12.374;2022-10-31T06:50:19;10.30;99.90
8109;DHT22;4097;47.812;12.374;2022-10-31T06:52:50;10.40;99.90
8109;DHT22;4097;47.812;12.374;2022-10-31T06:55:18;10.40;99.90
8109;DHT22;4097;47.812;12.374;2022-10-31T06:57:52;10.50;99.90
8109;DHT22;4097;47.812;12.374;2022-10-31T07:00:20;10.50;99.90
8109;DHT22;4097;47.812;12.374;2022-10-31T07:02:53;10.60;99.90
8109;DHT22;4097;47.812;12.374;2022-10-31T07:05:24;10.60;99.90
8109;DHT22;4097;47.812;12.374;2022-10-31T07:07:55;10.60;99.90
8109;DHT22;4097;47.812;12.374;2022-10-31T07:10:22;10.70;99.90
8109;DHT22;4097;47.812;12.374;2022-10-31T07:12:54;10.80;99.90
8109;DHT22;4097;47.812;12.374;2022-10-31T07:15:21;10.90;99.90
8109;DHT22;4097;47.812;12.374;2022-10-31T07:17:51;11.00;99.90
8109;DHT22;4097;47.812;12.374;2022-10-31T07:20:18;11.00;99.90
8109;DHT22;4097;47.812;12.374;2022-10-31T07:22:47;11.10;99.90
8109;DHT22;4097;47.812;12.374;2022-10-31T07:25:14;11.10;99.90
8109;DHT22;4097;47.812;12.374;2022-10-31T07:27:46;11.20;99.90
8109;DHT22;4097;47.812;12.374;2022-10-31T07:30:14;11.20;99.90
8109;DHT22;4097;47.812;12.374;2022-10-31T07:32:44;11.20;99.90
8109;DHT22;4097;47.812;12.374;2022-10-31T07:35:13;11.30;99.90
8109;DHT22;4097;47.812;12.374;2022-10-31T07:37:48;11.40;99.90
8109;DHT22;4097;47.812;12.374;2022-10-31T07:40:16;11.40;99.90
8109;DHT22;4097;47.812;12.374;2022-10-31T07:42:45;11.50;99.90
8109;DHT22;4097;47.812;12.374;2022-10-31T07:45:18;11.60;99.90
8109;DHT22;4097;47.812;12.374;2022-10-31T07:47:49;11.60;99.90
8109;DHT22;4097;47.812;12.374;2022-10-31T07:50:18;11.70;99.90
8109;DHT22;4097;47.812;12.374;2022-10-31T07:52:47;11.80;99.90
8109;DHT22;4097;47.812;12.374;2022-10-31T07:55:15;11.80;99.90
8109;DHT22;4097;47.812;12.374;2022-10-31T07:57:42;11.90;99.90
8109;DHT22;4097;47.812;12.374;2022-10-31T08:00:10;11.90;99.90
8109;DHT22;4097;47.812;12.374;2022-10-31T08:02:37;12.00;99.90
8109;DHT22;4097;47.812;12.374;2022-10-31T08:05:05;12.00;99.90
8109;DHT22;4097;47.812;12.374;2022-10-31T08:07:38;12.10;99.90
8109;DHT22;4097;47.812;12.374;2022-10-31T08:10:07;12.10;99.90
8109;DHT22;4097;47.812;12.374;2022-10-31T08:12:34;12.20;99.90
8109;DHT22;4097;47.812;12.374;2022-10-31T08:15:00;12.30;99.90
8109;DHT22;4097;47.812;12.374;2022-10-31T08:17:35;12.40;99.90
8109;DHT22;4097;47.812;12.374;2022-10-31T08:20:02;12.40;99.90
8109;DHT22;4097;47.812;12.374;2022-10-31T08:22:29;12.50;99.90
8109;DHT22;4097;47.812;12.374;2022-10-31T08:24:56;12.60;99.90
8109;DHT22;4097;47.812;12.374;2022-10-31T08:27:37;12.70;99.90
8109;DHT22;4097;47.812;12.374;2022-10-31T08:30:05;12.70;99.90
8109;DHT22;4097;47.812;12.374;2022-10-31T08:32:32;12.80;99.90
8109;DHT22;4097;47.812;12.374;2022-10-31T08:34:59;12.90;99.90
8109;DHT22;4097;47.812;12.374;2022-10-31T08:37:28;13.00;99.90
8109;DHT22;4097;47.812;12.374;2022-10-31T08:39:56;13.00;99.90
8109;DHT22;4097;47.812;12.374;2022-10-31T08:42:26;13.10;99.90
8109;DHT22;4097;47.812;12.374;2022-10-31T08:44:54;13.10;99.90
8109;DHT22;4097;47.812;12.374;2022-10-31T08:47:25;13.20;99.90
8109;DHT22;4097;47.812;12.374;2022-10-31T08:49:53;13.30;99.90
8109;DHT22;4097;47.812;12.374;2022-10-31T08:52:23;13.30;99.90
8109;DHT22;4097;47.812;12.374;2022-10-31T08:54:50;13.40;99.90
8109;DHT22;4097;47.812;12.374;2022-10-31T08:57:23;13.50;99.90
8109;DHT22;4097;47.812;12.374;2022-10-31T08:59:49;13.60;99.90
8109;DHT22;4097;47.812;12.374;2022-10-31T09:02:18;13.60;99.90
8109;DHT22;4097;47.812;12.374;2022-10-31T09:04:45;13.70;99.90
8109;DHT22;4097;47.812;12.374;2022-10-31T09:07:22;13.80;99.90
8109;DHT22;4097;47.812;12.374;2022-10-31T09:09:49;13.90;99.90
8109;DHT22;4097;47.812;12.374;2022-10-31T09:12:15;14.00;99.90
8109;DHT22;4097;47.812;12.374;2022-10-31T09:14:42;14.00;99.90
8109;DHT22;4097;47.812;12.374;2022-10-31T09:17:16;14.10;99.90
8109;DHT22;4097;47.812;12.374;2022-10-31T09:19:44;14.20;99.90
8109;DHT22;4097;47.812;12.374;2022-10-31T09:22:11;14.30;99.90
8109;DHT22;4097;47.812;12.374;2022-10-31T09:24:40;14.40;99.90
8109;DHT22;4097;47.812;12.374;2022-10-31T09:27:13;14.40;99.90
8109;DHT22;4097;47.812;12.374;2022-10-31T09:29:41;14.50;99.90
8109;DHT22;4097;47.812;12.374;2022-10-31T09:32:08;14.60;99.90
8109;DHT22;4097;47.812;12.374;2022-10-31T09:34:35;14.60;99.90
8109;DHT22;4097;47.812;12.374;2022-10-31T09:37:09;14.80;99.90
8109;DHT22;4097;47.812;12.374;2022-10-31T09:39:36;14.90;99.90
8109;DHT22;4097;47.812;12.374;2022-10-31T09:44:53;15.00;99.90
8109;DHT22;4097;47.812;12.374;2022-10-31T09:47:38;15.20;99.90
8109;DHT22;4097;47.812;12.374;2022-10-31T09:50:14;15.20;99.90
8109;DHT22;4097;47.812;12.374;2022-10-31T09:52:51;15.30;99.90
8109;DHT22;4097;47.812;12.374;2022-10-31T09:55:26;15.30;99.90
8109;DHT22;4097;47.812;12.374;2022-10-31T09:58:02;15.40;99.90
8109;DHT22;4097;47.812;12.374;2022-10-31T10:00:32;15.40;99.90
8109;DHT22;4097;47.812;12.374;2022-10-31T10:03:05;15.50;99.90
8109;DHT22;4097;47.812;12.374;2022-10-31T10:05:39;15.60;99.90
8109;DHT22;4097;47.812;12.374;2022-10-31T10:08:18;15.70;99.90
8109;DHT22;4097;47.812;12.374;2022-10-31T10:10:50;15.80;99.90
8109;DHT22;4097;47.812;12.374;2022-10-31T10:13:33;15.90;99.90
8109;DHT22;4097;47.812;12.374;2022-10-31T10:16:17;16.00;99.90
8109;DHT22;4097;47.812;12.374;2022-10-31T10:19:01;16.10;99.90
8109;DHT22;4097;47.812;12.374;2022-10-31T10:21:38;16.20;99.90
8109;DHT22;4097;47.812;12.374;2022-10-31T10:24:22;16.30;99.90
8109;DHT22;4097;47.812;12.374;2022-10-31T10:27:05;16.30;99.90
8109;DHT22;4097;47.812;12.374;2022-10-31T10:29:42;16.40;99.90
8109;DHT22;4097;47.812;12.374;2022-10-31T10:32:17;16.40;99.90
8109;DHT22;4097;47.812;12.374;2022-10-31T10:34:49;16.50;99.90
8109;DHT22;4097;47.812;12.374;2022-10-31T10:37:31;16.60;99.90
8109;DHT22;4097;47.812;12.374;2022-10-31T10:40:07;16.60;99.90
8109;DHT22;4097;47.812;12.374;2022-10-31T10:42:38;16.80;99.90
8109;DHT22;4097;47.812;12.374;2022-10-31T10:45:23;16.90;99.90
8109;DHT22;4097;47.812;12.374;2022-10-31T10:48:15;16.90;99.90
8109;DHT22;4097;47.812;12.374;2022-10-31T10:50:47;17.10;99.90
8109;DHT22;4097;47.812;12.374;2022-10-31T10:53:27;17.10;99.90
8109;DHT22;4097;47.812;12.374;2022-10-31T10:56:11;17.20;99.90
8109;DHT22;4097;47.812;12.374;2022-10-31T10:58:42;17.20;99.90
8109;DHT22;4097;47.812;12.374;2022-10-31T11:01:12;17.30;99.90
8109;DHT22;4097;47.812;12.374;2022-10-31T11:03:40;17.30;99.90
8109;DHT22;4097;47.812;12.374;2022-10-31T11:06:17;17.30;99.90
8109;DHT22;4097;47.812;12.374;2022-10-31T11:08:53;17.40;99.90
8109;DHT22;4097;47.812;12.374;2022-10-31T11:11:26;17.40;99.90
8109;DHT22;4097;47.812;12.374;2022-10-31T11:14:00;17.40;99.90
8109;DHT22;4097;47.812;12.374;2022-10-31T11:16:32;17.50;99.90
8109;DHT22;4097;47.812;12.374;2022-10-31T11:19:13;17.50;99.90
8109;DHT22;4097;47.812;12.374;2022-10-31T11:21:41;17.50;99.90
8109;DHT22;4097;47.812;12.374;2022-10-31T11:24:15;17.50;99.90
8109;DHT22;4097;47.812;12.374;2022-10-31T11:26:45;17.50;99.90
8109;DHT22;4097;47.812;12.374;2022-10-31T11:29:26;17.60;99.90
8109;DHT22;4097;47.812;12.374;2022-10-31T11:31:54;17.60;99.90
8109;DHT22;4097;47.812;12.374;2022-10-31T11:34:29;17.60;99.90
8109;DHT22;4097;47.812;12.374;2022-10-31T11:37:11;17.60;99.90
8109;DHT22;4097;47.812;12.374;2022-10-31T11:39:41;17.60;99.90
8109;DHT22;4097;47.812;12.374;2022-10-31T11:42:12;17.60;99.90
8109;DHT22;4097;47.812;12.374;2022-10-31T11:44:42;17.60;99.90
8109;DHT22;4097;47.812;12.374;2022-10-31T11:47:19;17.60;99.90
8109;DHT22;4097;47.812;12.374;2022-10-31T11:49:48;17.60;99.90
8109;DHT22;4097;47.812;12.374;2022-10-31T11:52:22;17.60;99.90
8109;DHT22;4097;47.812;12.374;2022-10-31T11:54:53;17.60;99.90
8109;DHT22;4097;47.812;12.374;2022-10-31T11:57:30;17.70;99.90
8109;DHT22;4097;47.812;12.374;2022-10-31T11:59:59;17.70;99.90
8109;DHT22;4097;47.812;12.374;2022-10-31T12:02:26;17.70;99.90
8109;DHT22;4097;47.812;12.374;2022-10-31T12:05:02;17.70;99.90
8109;DHT22;4097;47.812;12.374;2022-10-31T12:07:33;17.80;99.90
8109;DHT22;4097;47.812;12.374;2022-10-31T12:10:00;17.80;99.90
8109;DHT22;4097;47.812;12.374;2022-10-31T12:15:31;17.80;99.90
8109;DHT22;4097;47.812;12.374;2022-10-31T12:18:25;17.80;99.90
8109;DHT22;4097;47.812;12.374;2022-10-31T12:21:09;17.90;99.90
8109;DHT22;4097;47.812;12.374;2022-10-31T12:23:50;17.90;99.90
8109;DHT22;4097;47.812;12.374;2022-10-31T12:26:22;17.90;99.90
8109;DHT22;4097;47.812;12.374;2022-10-31T12:29:05;17.90;99.90
8109;DHT22;4097;47.812;12.374;2022-10-31T12:31:44;17.90;99.90
8109;DHT22;4097;47.812;12.374;2022-10-31T12:34:32;17.90;99.90
8109;DHT22;4097;47.812;12.374;2022-10-31T12:37:15;18.00;99.90
8109;DHT22;4097;47.812;12.374;2022-10-31T12:39:55;17.90;99.90
8109;DHT22;4097;47.812;12.374;2022-10-31T12:42:41;18.00;99.90
8109;DHT22;4097;47.812;12.374;2022-10-31T12:45:39;17.90;99.90
8109;DHT22;4097;47.812;12.374;2022-10-31T12:48:32;17.90;99.90
8109;DHT22;4097;47.812;12.374;2022-10-31T12:51:05;18.00;99.90
8109;DHT22;4097;47.812;12.374;2022-10-31T12:53:46;18.00;99.90
8109;DHT22;4097;47.812;12.374;2022-10-31T12:56:27;18.00;99.90
8109;DHT22;4097;47.812;12.374;2022-10-31T12:59:02;18.00;99.90
8109;DHT22;4097;47.812;12.374;2022-10-31T13:01:38;18.10;99.90
8109;DHT22;4097;47.812;12.374;2022-10-31T13:04:15;18.10;99.90
8109;DHT22;4097;47.812;12.374;2022-10-31T13:07:08;18.00;99.90
8109;DHT22;4097;47.812;12.374;2022-10-31T13:09:42;18.00;99.90
8109;DHT22;4097;47.812;12.374;2022-10-31T13:12:12;18.00;99.90
8109;DHT22;4097;47.812;12.374;2022-10-31T13:14:43;18.00;99.90
8109;DHT22;4097;47.812;12.374;2022-10-31T13:17:24;18.00;99.90
8109;DHT22;4097;47.812;12.374;2022-10-31T13:19:59;18.00;99.90
8109;DHT22;4097;47.812;12.374;2022-10-31T13:22:31;18.00;99.90
8109;DHT22;4097;47.812;12.374;2022-10-31T13:25:09;18.00;99.90
8109;DHT22;4097;47.812;12.374;2022-10-31T13:27:46;18.00;99.90
8109;DHT22;4097;47.812;12.374;2022-10-31T13:30:17;18.00;99.90
8109;DHT22;4097;47.812;12.374;2022-10-31T13:32:49;18.00;99.90
8109;DHT22;4097;47.812;12.374;2022-10-31T13:35:24;18.00;99.90
8109;DHT22;4097;47.812;12.374;2022-10-31T13:38:20;18.00;99.90
8109;DHT22;4097;47.812;12.374;2022-10-31T13:40:53;18.00;99.90
8109;DHT22;4097;47.812;12.374;2022-10-31T13:43:30;17.90;99.90
8109;DHT22;4097;47.812;12.374;2022-10-31T13:45:58;17.90;99.90
8109;DHT22;4097;47.812;12.374;2022-10-31T13:48:48;17.90;99.90
8109;DHT22;4097;47.812;12.374;2022-10-31T13:51:24;17.90;99.90
8109;DHT22;4097;47.812;12.374;2022-10-31T13:53:58;17.90;99.90
8109;DHT22;4097;47.812;12.374;2022-10-31T13:56:27;17.90;99.90
8109;DHT22;4097;47.812;12.374;2022-10-31T13:59:16;17.90;99.90
8109;DHT22;4097;47.812;12.374;2022-10-31T14:01:49;17.90;99.90
8109;DHT22;4097;47.812;12.374;2022-10-31T14:04:20;17.90;99.90
8109;DHT22;4097;47.812;12.374;2022-10-31T14:06:57;17.90;99.90
8109;DHT22;4097;47.812;12.374;2022-10-31T14:09:29;17.90;99.90
8109;DHT22;4097;47.812;12.374;2022-10-31T14:12:01;17.90;99.90
8109;DHT22;4097;47.812;12.374;2022-10-31T14:14:33;17.90;99.90
8109;DHT22;4097;47.812;12.374;2022-10-31T14:17:18;17.80;99.90
8109;DHT22;4097;47.812;12.374;2022-10-31T14:19:59;17.80;99.90
8109;DHT22;4097;47.812;12.374;2022-10-31T14:22:32;17.80;99.90
8109;DHT22;4097;47.812;12.374;2022-10-31T14:24:59;17.80;99.90
8109;DHT22;4097;47.812;12.374;2022-10-31T14:27:46;17.80;99.90
8109;DHT22;4097;47.812;12.374;2022-10-31T14:30:18;17.90;99.90
8109;DHT22;4097;47.812;12.374;2022-10-31T14:32:51;17.90;99.90
8109;DHT22;4097;47.812;12.374;2022-10-31T14:35:20;17.90;99.90
8109;DHT22;4097;47.812;12.374;2022-10-31T14:38:11;18.00;99.90
8109;DHT22;4097;47.812;12.374;2022-10-31T14:40:52;18.00;99.90
8109;DHT22;4097;47.812;12.374;2022-10-31T14:43:41;17.90;99.90
8109;DHT22;4097;47.812;12.374;2022-10-31T14:46:17;17.90;99.90
8109;DHT22;4097;47.812;12.374;2022-10-31T14:49:00;18.00;99.90
8109;DHT22;4097;47.812;12.374;2022-10-31T14:51:35;18.00;99.90
8109;DHT22;4097;47.812;12.374;2022-10-31T14:54:05;18.00;99.90
8109;DHT22;4097;47.812;12.374;2022-10-31T14:56:35;18.00;99.90
8109;DHT22;4097;47.812;12.374;2022-10-31T14:59:09;17.90;99.90
8109;DHT22;4097;47.812;12.374;2022-10-31T15:01:39;17.90;99.90
8109;DHT22;4097;47.812;12.374;2022-10-31T15:04:16;17.90;99.90
8109;DHT22;4097;47.812;12.374;2022-10-31T15:06:48;17.90;99.90
8109;DHT22;4097;47.812;12.374;2022-10-31T15:09:37;17.80;99.90
8109;DHT22;4097;47.812;12.374;2022-10-31T15:12:23;17.80;99.90
8109;DHT22;4097;47.812;12.374;2022-10-31T15:14:50;17.80;99.90
8109;DHT22;4097;47.812;12.374;2022-10-31T15:17:24;17.70;99.90
8109;DHT22;4097;47.812;12.374;2022-10-31T15:19:52;17.70;99.90
8109;DHT22;4097;47.812;12.374;2022-10-31T15:22:23;17.70;99.90
8109;DHT22;4097;47.812;12.374;2022-10-31T15:24:50;17.60;99.90
8109;DHT22;4097;47.812;12.374;2022-10-31T15:27:24;17.60;99.90
8109;DHT22;4097;47.812;12.374;2022-10-31T15:29:55;17.60;99.90
8109;DHT22;4097;47.812;12.374;2022-10-31T15:32:23;17.50;99.90
8109;DHT22;4097;47.812;12.374;2022-10-31T15:34:51;17.50;99.90
8109;DHT22;4097;47.812;12.374;2022-10-31T15:37:26;17.50;99.90
8109;DHT22;4097;47.812;12.374;2022-10-31T15:39:54;17.40;99.90
8109;DHT22;4097;47.812;12.374;2022-10-31T15:42:23;17.30;99.90
8109;DHT22;4097;47.812;12.374;2022-10-31T15:44:55;17.30;99.90
8109;DHT22;4097;47.812;12.374;2022-10-31T15:47:30;17.20;99.90
8109;DHT22;4097;47.812;12.374;2022-10-31T15:49:59;17.20;99.90
8109;DHT22;4097;47.812;12.374;2022-10-31T15:52:31;17.10;99.90
8109;DHT22;4097;47.812;12.374;2022-10-31T15:55:01;17.10;99.90
8109;DHT22;4097;47.812;12.374;2022-10-31T15:57:39;17.00;99.90
8109;DHT22;4097;47.812;12.374;2022-10-31T16:00:22;16.90;99.90
8109;DHT22;4097;47.812;12.374;2022-10-31T16:02:49;16.70;99.90
8109;DHT22;4097;47.812;12.374;2022-10-31T16:05:19;16.60;99.90
8109;DHT22;4097;47.812;12.374;2022-10-31T16:07:51;16.50;99.90
8109;DHT22;4097;47.812;12.374;2022-10-31T16:10:24;16.50;99.90
8109;DHT22;4097;47.812;12.374;2022-10-31T16:12:52;16.40;99.90
8109;DHT22;4097;47.812;12.374;2022-10-31T16:15:20;16.30;99.90
8109;DHT22;4097;47.812;12.374;2022-10-31T16:17:53;16.20;99.90
8109;DHT22;4097;47.812;12.374;2022-10-31T16:20:23;16.10;99.90
8109;DHT22;4097;47.812;12.374;2022-10-31T16:22:53;16.10;99.90
8109;DHT22;4097;47.812;12.374;2022-10-31T16:25:25;16.10;99.90
8109;DHT22;4097;47.812;12.374;2022-10-31T16:28:02;16.10;99.90
8109;DHT22;4097;47.812;12.374;2022-10-31T16:30:36;15.80;99.90
8109;DHT22;4097;47.812;12.374;2022-10-31T16:33:21;15.70;99.90